createdAt,value
2018-01-12T00:00:05.872Z,981.52
2018-01-12T00:01:05.352Z,981.52
2018-01-12T00:02:05.144Z,981.46
2018-01-12T00:03:05.694Z,981.57
2018-01-12T00:04:05.381Z,981.55
2018-01-12T00:05:05.362Z,981.46
2018-01-12T00:06:05.788Z,981.44
2018-01-12T00:07:05.212Z,981.55
2018-01-12T00:08:04.976Z,981.55
2018-01-12T00:09:05.749Z,981.56
2018-01-12T00:10:05.598Z,981.62
2018-01-12T00:11:05.155Z,981.43
2018-01-12T00:12:05.205Z,981.49
2018-01-12T00:13:05.347Z,981.56
2018-01-12T00:14:05.488Z,981.41
2018-01-12T00:15:05.114Z,981.52
2018-01-12T00:16:05.767Z,981.59
2018-01-12T00:17:05.747Z,981.59
2018-01-12T00:18:05.260Z,981.59
2018-01-12T00:19:05.137Z,981.49
2018-01-12T00:20:05.216Z,981.65
2018-01-12T00:21:05.587Z,981.59
2018-01-12T00:22:05.679Z,981.49
2018-01-12T00:23:05.592Z,981.68
2018-01-12T00:24:05.488Z,981.67
2018-01-12T00:25:05.058Z,981.62
2018-01-12T00:26:04.964Z,981.67
2018-01-12T00:27:05.751Z,981.70
2018-01-12T00:28:05.351Z,981.62
2018-01-12T00:29:05.929Z,981.70
2018-01-12T00:30:05.818Z,981.76
2018-01-12T00:31:05.653Z,981.56
2018-01-12T00:32:05.370Z,981.62
2018-01-12T00:33:05.378Z,981.81
2018-01-12T00:34:05.076Z,981.73
2018-01-12T00:35:05.693Z,981.87
2018-01-12T00:36:05.633Z,981.70
2018-01-12T00:37:05.276Z,981.78
2018-01-12T00:38:05.134Z,981.79
2018-01-12T00:39:05.640Z,981.79
2018-01-12T00:40:05.391Z,981.93
2018-01-12T00:41:05.800Z,981.73
2018-01-12T00:42:05.340Z,981.84
2018-01-12T00:43:05.874Z,981.87
2018-01-12T00:44:05.691Z,981.76
2018-01-12T00:45:05.664Z,981.81
2018-01-12T00:46:05.724Z,981.90
2018-01-12T00:47:05.388Z,981.92
2018-01-12T00:48:05.245Z,981.76
2018-01-12T00:49:05.241Z,981.76
2018-01-12T00:50:05.696Z,981.87
2018-01-12T00:51:05.355Z,981.84
2018-01-12T00:52:05.821Z,981.76
2018-01-12T00:53:05.483Z,982.01
2018-01-12T00:54:06.106Z,981.84
2018-01-12T00:55:05.037Z,981.81
2018-01-12T00:56:05.466Z,981.98
2018-01-12T00:57:05.212Z,981.81
2018-01-12T00:58:05.578Z,981.81
2018-01-12T00:59:10.316Z,981.81
2018-01-12T01:00:05.248Z,981.84
2018-01-12T01:01:05.866Z,981.79
2018-01-12T01:02:05.885Z,981.93
2018-01-12T01:03:05.474Z,981.79
2018-01-12T01:04:05.382Z,982.01
2018-01-12T01:05:10.975Z,982.04
2018-01-12T01:06:05.899Z,981.90
2018-01-12T01:07:05.680Z,982.12
2018-01-12T01:08:05.536Z,981.98
2018-01-12T01:09:05.322Z,982.12
2018-01-12T01:10:05.997Z,981.87
2018-01-12T01:11:05.618Z,981.98
2018-01-12T01:12:05.323Z,981.98
2018-01-12T01:13:05.907Z,982.07
2018-01-12T01:14:05.464Z,982.07
2018-01-12T01:15:05.088Z,982.04
2018-01-12T01:16:05.035Z,982.15
2018-01-12T01:17:05.400Z,982.24
2018-01-12T01:18:05.432Z,982.07
2018-01-12T01:19:05.166Z,982.01
2018-01-12T01:20:05.676Z,982.12
2018-01-12T01:21:05.175Z,982.04
2018-01-12T01:22:10.829Z,982.07
2018-01-12T01:23:05.632Z,982.12
2018-01-12T01:24:05.686Z,982.07
2018-01-12T01:25:05.629Z,982.12
2018-01-12T01:26:10.283Z,982.21
2018-01-12T01:27:05.497Z,982.18
2018-01-12T01:28:05.291Z,982.15
2018-01-12T01:29:10.563Z,982.21
2018-01-12T01:30:05.899Z,982.21
2018-01-12T01:31:05.841Z,982.15
2018-01-12T01:32:06.007Z,982.21
2018-01-12T01:33:05.294Z,982.26
2018-01-12T01:34:05.129Z,982.12
2018-01-12T01:35:05.531Z,982.15
2018-01-12T01:36:05.362Z,982.07
2018-01-12T01:37:05.146Z,982.15
2018-01-12T01:38:05.542Z,982.23
2018-01-12T01:39:05.142Z,982.26
2018-01-12T01:40:05.150Z,982.18
2018-01-12T01:41:04.983Z,982.18
2018-01-12T01:42:05.012Z,982.18
2018-01-12T01:43:05.620Z,982.15
2018-01-12T01:44:05.089Z,982.21
2018-01-12T01:45:04.996Z,982.15
2018-01-12T01:46:05.680Z,982.37
2018-01-12T01:47:05.610Z,982.29
2018-01-12T01:48:05.176Z,982.37
2018-01-12T01:49:05.276Z,982.35
2018-01-12T01:50:05.945Z,982.21
2018-01-12T01:51:05.363Z,982.26
2018-01-12T01:52:05.072Z,982.37
2018-01-12T01:53:05.115Z,982.26
2018-01-12T01:54:05.359Z,982.18
2018-01-12T01:55:05.343Z,982.26
2018-01-12T01:56:05.936Z,982.35
2018-01-12T01:57:05.754Z,982.43
2018-01-12T01:58:05.668Z,982.29
2018-01-12T01:59:05.121Z,982.26
2018-01-12T02:00:05.619Z,982.35
2018-01-12T02:01:05.126Z,982.26
2018-01-12T02:02:05.345Z,982.46
2018-01-12T02:03:05.100Z,982.43
2018-01-12T02:04:05.107Z,982.35
2018-01-12T02:05:05.714Z,982.32
2018-01-12T02:06:05.036Z,982.35
2018-01-12T02:07:05.744Z,982.38
2018-01-12T02:08:05.308Z,982.27
2018-01-12T02:09:05.057Z,982.27
2018-01-12T02:10:05.114Z,982.52
2018-01-12T02:11:05.144Z,982.41
2018-01-12T02:12:05.305Z,982.30
2018-01-12T02:13:05.856Z,982.43
2018-01-12T02:14:05.738Z,982.60
2018-01-12T02:15:05.748Z,982.52
2018-01-12T02:16:05.698Z,982.49
2018-01-12T02:17:05.896Z,982.46
2018-01-12T02:18:05.154Z,982.38
2018-01-12T02:19:06.128Z,982.52
2018-01-12T02:20:05.523Z,982.58
2018-01-12T02:21:05.336Z,982.41
2018-01-12T02:22:05.812Z,982.41
2018-01-12T02:23:10.460Z,982.49
2018-01-12T02:24:05.259Z,982.47
2018-01-12T02:25:05.173Z,982.49
2018-01-12T02:26:05.864Z,982.41
2018-01-12T02:27:05.304Z,982.58
2018-01-12T02:28:06.002Z,982.58
2018-01-12T02:29:05.273Z,982.58
2018-01-12T02:30:05.214Z,982.41
2018-01-12T02:31:05.837Z,982.58
2018-01-12T02:32:05.556Z,982.44
2018-01-12T02:33:04.957Z,982.50
2018-01-12T02:34:05.039Z,982.44
2018-01-12T02:35:05.879Z,982.41
2018-01-12T02:36:05.031Z,982.44
2018-01-12T02:37:05.700Z,982.55
2018-01-12T02:38:05.249Z,982.41
2018-01-12T02:39:06.184Z,982.53
2018-01-12T02:40:05.755Z,982.50
2018-01-12T02:41:05.422Z,982.61
2018-01-12T02:42:05.370Z,982.41
2018-01-12T02:43:05.882Z,982.50
2018-01-12T02:44:05.897Z,982.53
2018-01-12T02:45:05.672Z,982.44
2018-01-12T02:46:05.145Z,982.50
2018-01-12T02:47:05.102Z,982.53
2018-01-12T02:48:05.701Z,982.36
2018-01-12T02:49:05.292Z,982.58
2018-01-12T02:50:05.724Z,982.42
2018-01-12T02:51:05.382Z,982.61
2018-01-12T02:52:05.007Z,982.58
2018-01-12T02:53:05.897Z,982.55
2018-01-12T02:54:05.243Z,982.55
2018-01-12T02:55:05.819Z,982.64
2018-01-12T02:56:05.171Z,982.64
2018-01-12T02:57:05.495Z,982.55
2018-01-12T02:58:05.273Z,982.58
2018-01-12T02:59:05.655Z,982.67
2018-01-12T03:00:05.354Z,982.69
2018-01-12T03:01:05.221Z,982.67
2018-01-12T03:02:05.044Z,982.88
2018-01-12T03:03:05.258Z,982.61
2018-01-12T03:04:05.116Z,982.58
2018-01-12T03:05:05.575Z,982.55
2018-01-12T03:06:05.217Z,982.47
2018-01-12T03:07:05.767Z,982.53
2018-01-12T03:08:05.043Z,982.58
2018-01-12T03:09:05.092Z,982.50
2018-01-12T03:10:05.153Z,982.58
2018-01-12T03:11:05.561Z,982.75
2018-01-12T03:12:05.947Z,982.72
2018-01-12T03:13:05.435Z,982.67
2018-01-12T03:14:05.307Z,982.67
2018-01-12T03:15:05.638Z,982.80
2018-01-12T03:16:05.256Z,982.69
2018-01-12T03:17:05.161Z,982.55
2018-01-12T03:18:05.679Z,982.55
2018-01-12T03:19:05.780Z,982.66
2018-01-12T03:20:05.542Z,982.55
2018-01-12T03:21:05.152Z,982.66
2018-01-12T03:22:05.020Z,982.64
2018-01-12T03:23:05.057Z,982.64
2018-01-12T03:24:05.497Z,982.75
2018-01-12T03:25:05.282Z,982.69
2018-01-12T03:26:05.982Z,982.64
2018-01-12T03:27:05.133Z,982.72
2018-01-12T03:28:05.532Z,982.69
2018-01-12T03:29:05.737Z,982.66
2018-01-12T03:30:05.158Z,982.82
2018-01-12T03:31:05.018Z,982.72
2018-01-12T03:32:06.072Z,982.69
2018-01-12T03:33:05.218Z,982.80
2018-01-12T03:34:05.705Z,982.80
2018-01-12T03:35:05.825Z,982.75
2018-01-12T03:36:05.546Z,982.80
2018-01-12T03:37:05.213Z,982.69
2018-01-12T03:38:05.692Z,982.88
2018-01-12T03:39:05.855Z,982.82
2018-01-12T03:40:05.736Z,982.75
2018-01-12T03:41:05.626Z,982.66
2018-01-12T03:42:06.089Z,982.69
2018-01-12T03:43:05.801Z,982.63
2018-01-12T03:44:05.395Z,982.66
2018-01-12T03:45:05.056Z,982.79
2018-01-12T03:46:05.078Z,982.72
2018-01-12T03:47:05.519Z,982.66
2018-01-12T03:48:05.528Z,982.88
2018-01-12T03:49:05.066Z,982.93
2018-01-12T03:50:05.748Z,982.69
2018-01-12T03:51:05.176Z,982.79
2018-01-12T03:52:05.210Z,982.91
2018-01-12T03:53:05.749Z,982.88
2018-01-12T03:54:05.716Z,982.88
2018-01-12T03:55:05.585Z,982.79
2018-01-12T03:56:05.894Z,982.85
2018-01-12T03:57:05.654Z,982.88
2018-01-12T03:58:05.225Z,982.90
2018-01-12T03:59:04.957Z,982.96
2018-01-12T04:00:05.421Z,982.85
2018-01-12T04:01:05.205Z,982.93
2018-01-12T04:02:05.899Z,982.85
2018-01-12T04:03:05.706Z,982.85
2018-01-12T04:04:05.556Z,982.99
2018-01-12T04:05:05.718Z,982.88
2018-01-12T04:06:05.147Z,982.96
2018-01-12T04:07:05.048Z,983.02
2018-01-12T04:08:05.489Z,982.93
2018-01-12T04:09:05.173Z,982.90
2018-01-12T04:10:05.210Z,982.85
2018-01-12T04:11:05.653Z,982.96
2018-01-12T04:12:05.365Z,982.90
2018-01-12T04:13:05.952Z,982.85
2018-01-12T04:14:05.548Z,982.93
2018-01-12T04:15:05.831Z,982.93
2018-01-12T04:16:05.793Z,982.96
2018-01-12T04:17:06.024Z,982.85
2018-01-12T04:18:05.374Z,983.01
2018-01-12T04:19:05.238Z,982.88
2018-01-12T04:20:05.494Z,983.07
2018-01-12T04:21:05.421Z,982.93
2018-01-12T04:22:05.745Z,982.90
2018-01-12T04:23:05.520Z,982.93
2018-01-12T04:24:05.127Z,982.96
2018-01-12T04:25:05.624Z,982.99
2018-01-12T04:26:04.945Z,982.99
2018-01-12T04:27:10.956Z,983.01
2018-01-12T04:28:05.640Z,982.96
2018-01-12T04:29:05.663Z,983.04
2018-01-12T04:30:05.108Z,983.10
2018-01-12T04:31:05.579Z,983.07
2018-01-12T04:32:05.892Z,983.01
2018-01-12T04:33:05.668Z,983.07
2018-01-12T04:34:05.769Z,983.04
2018-01-12T04:35:06.012Z,983.04
2018-01-12T04:36:09.952Z,983.10
2018-01-12T04:37:05.193Z,983.07
2018-01-12T04:38:05.689Z,983.12
2018-01-12T04:39:05.601Z,983.18
2018-01-12T04:40:05.446Z,983.15
2018-01-12T04:41:05.973Z,983.15
2018-01-12T04:42:05.041Z,983.07
2018-01-12T04:43:05.746Z,983.10
2018-01-12T04:44:05.435Z,983.21
2018-01-12T04:45:05.483Z,983.10
2018-01-12T04:46:05.384Z,983.07
2018-01-12T04:47:05.280Z,983.18
2018-01-12T04:48:10.303Z,983.01
2018-01-12T04:49:05.601Z,982.98
2018-01-12T04:50:10.517Z,983.01
2018-01-12T04:51:05.593Z,983.18
2018-01-12T04:52:05.245Z,983.15
2018-01-12T04:53:05.842Z,983.23
2018-01-12T04:54:05.257Z,983.23
2018-01-12T04:55:05.078Z,983.07
2018-01-12T04:56:05.795Z,983.07
2018-01-12T04:57:05.611Z,983.15
2018-01-12T04:58:05.313Z,983.26
2018-01-12T04:59:05.562Z,983.23
2018-01-12T05:00:05.190Z,983.35
2018-01-12T05:01:05.766Z,983.23
2018-01-12T05:02:05.158Z,983.20
2018-01-12T05:03:05.013Z,983.18
2018-01-12T05:04:05.657Z,983.26
2018-01-12T05:05:05.264Z,983.23
2018-01-12T05:06:05.447Z,983.20
2018-01-12T05:07:05.472Z,983.29
2018-01-12T05:08:05.670Z,983.18
2018-01-12T05:09:05.057Z,983.29
2018-01-12T05:10:05.816Z,983.17
2018-01-12T05:11:05.346Z,983.15
2018-01-12T05:12:05.945Z,983.18
2018-01-12T05:13:05.782Z,983.26
2018-01-12T05:14:05.694Z,983.26
2018-01-12T05:15:05.452Z,983.36
2018-01-12T05:16:04.991Z,983.34
2018-01-12T05:17:04.940Z,983.32
2018-01-12T05:18:05.660Z,983.34
2018-01-12T05:19:05.168Z,983.36
2018-01-12T05:20:05.944Z,983.42
2018-01-12T05:21:05.504Z,983.39
2018-01-12T05:22:05.532Z,983.32
2018-01-12T05:23:05.214Z,983.34
2018-01-12T05:24:05.087Z,983.45
2018-01-12T05:25:05.608Z,983.32
2018-01-12T05:26:05.049Z,983.36
2018-01-12T05:27:05.031Z,983.29
2018-01-12T05:28:05.735Z,983.42
2018-01-12T05:29:05.413Z,983.50
2018-01-12T05:30:06.037Z,983.29
2018-01-12T05:31:06.022Z,983.50
2018-01-12T05:32:05.796Z,983.42
2018-01-12T05:33:05.720Z,983.32
2018-01-12T05:34:05.395Z,983.32
2018-01-12T05:35:05.553Z,983.39
2018-01-12T05:36:10.278Z,983.31
2018-01-12T05:37:05.796Z,983.31
2018-01-12T05:38:05.459Z,983.34
2018-01-12T05:39:05.229Z,983.36
2018-01-12T05:40:05.888Z,983.39
2018-01-12T05:41:05.233Z,983.34
2018-01-12T05:42:05.371Z,983.67
2018-01-12T05:43:05.764Z,983.47
2018-01-12T05:44:05.321Z,983.47
2018-01-12T05:45:05.264Z,983.36
2018-01-12T05:46:05.708Z,983.42
2018-01-12T05:47:05.940Z,983.44
2018-01-12T05:48:05.700Z,983.44
2018-01-12T05:49:05.081Z,983.34
2018-01-12T05:50:06.015Z,983.39
2018-01-12T05:51:05.979Z,983.50
2018-01-12T05:52:05.763Z,983.34
2018-01-12T05:53:05.310Z,983.39
2018-01-12T05:54:05.880Z,983.44
2018-01-12T05:55:10.723Z,983.53
2018-01-12T05:56:05.135Z,983.61
2018-01-12T05:57:04.943Z,983.61
2018-01-12T05:58:05.155Z,983.47
2018-01-12T05:59:05.669Z,983.50
2018-01-12T06:00:05.335Z,983.50
2018-01-12T06:01:05.799Z,983.58
2018-01-12T06:02:05.289Z,983.53
2018-01-12T06:03:05.259Z,983.47
2018-01-12T06:04:05.137Z,983.56
2018-01-12T06:05:05.945Z,983.61
2018-01-12T06:06:05.995Z,983.67
2018-01-12T06:07:05.672Z,983.50
2018-01-12T06:08:05.541Z,983.61
2018-01-12T06:09:05.561Z,983.61
2018-01-12T06:10:05.361Z,983.50
2018-01-12T06:11:05.438Z,983.70
2018-01-12T06:12:05.169Z,983.56
2018-01-12T06:13:05.230Z,983.75
2018-01-12T06:14:05.765Z,983.67
2018-01-12T06:15:05.272Z,983.64
2018-01-12T06:16:05.150Z,983.61
2018-01-12T06:17:05.721Z,983.67
2018-01-12T06:18:05.732Z,983.58
2018-01-12T06:19:05.239Z,983.67
2018-01-12T06:20:05.296Z,983.70
2018-01-12T06:21:05.809Z,983.69
2018-01-12T06:22:05.691Z,983.78
2018-01-12T06:23:05.315Z,983.75
2018-01-12T06:24:10.899Z,983.72
2018-01-12T06:25:05.299Z,983.84
2018-01-12T06:26:05.372Z,983.75
2018-01-12T06:27:05.210Z,983.70
2018-01-12T06:28:05.734Z,983.75
2018-01-12T06:29:05.455Z,983.84
2018-01-12T06:30:05.037Z,983.78
2018-01-12T06:31:04.938Z,983.72
2018-01-12T06:32:05.611Z,983.72
2018-01-12T06:33:04.917Z,983.84
2018-01-12T06:34:05.529Z,983.89
2018-01-12T06:35:05.354Z,983.84
2018-01-12T06:36:05.776Z,983.89
2018-01-12T06:37:05.702Z,983.84
2018-01-12T06:38:05.544Z,983.89
2018-01-12T06:39:05.558Z,983.89
2018-01-12T06:40:05.700Z,983.84
2018-01-12T06:41:05.074Z,983.86
2018-01-12T06:42:05.823Z,983.72
2018-01-12T06:43:05.846Z,983.98
2018-01-12T06:44:05.432Z,983.75
2018-01-12T06:45:05.595Z,983.75
2018-01-12T06:46:05.324Z,983.95
2018-01-12T06:47:05.291Z,984.00
2018-01-12T06:48:05.902Z,984.06
2018-01-12T06:49:05.839Z,983.89
2018-01-12T06:50:05.758Z,984.00
2018-01-12T06:51:05.176Z,984.00
2018-01-12T06:52:05.912Z,984.06
2018-01-12T06:53:06.155Z,984.03
2018-01-12T06:54:05.128Z,984.06
2018-01-12T06:55:05.109Z,984.12
2018-01-12T06:56:05.747Z,984.14
2018-01-12T06:57:10.463Z,984.09
2018-01-12T06:58:05.222Z,984.14
2018-01-12T06:59:05.725Z,984.17
2018-01-12T07:00:05.234Z,984.09
2018-01-12T07:01:05.474Z,984.14
2018-01-12T07:02:05.097Z,984.26
2018-01-12T07:03:05.470Z,984.12
2018-01-12T07:04:05.210Z,984.20
2018-01-12T07:05:05.471Z,984.28
2018-01-12T07:06:05.253Z,984.26
2018-01-12T07:07:05.018Z,984.17
2018-01-12T07:08:04.913Z,984.14
2018-01-12T07:09:05.429Z,984.23
2018-01-12T07:10:05.348Z,984.20
2018-01-12T07:11:05.338Z,984.25
2018-01-12T07:12:05.181Z,984.31
2018-01-12T07:13:05.895Z,984.23
2018-01-12T07:14:05.844Z,984.42
2018-01-12T07:15:05.107Z,984.34
2018-01-12T07:16:05.810Z,984.23
2018-01-12T07:17:05.454Z,984.34
2018-01-12T07:18:05.874Z,984.34
2018-01-12T07:19:05.366Z,984.39
2018-01-12T07:20:10.256Z,984.28
2018-01-12T07:21:05.070Z,984.45
2018-01-12T07:22:05.565Z,984.39
2018-01-12T07:23:05.330Z,984.39
2018-01-12T07:24:05.273Z,984.28
2018-01-12T07:25:05.507Z,984.28
2018-01-12T07:26:05.055Z,984.39
2018-01-12T07:27:05.194Z,984.34
2018-01-12T07:28:04.943Z,984.39
2018-01-12T07:29:05.156Z,984.37
2018-01-12T07:30:06.025Z,984.34
2018-01-12T07:31:05.621Z,984.39
2018-01-12T07:32:05.737Z,984.48
2018-01-12T07:33:05.536Z,984.45
2018-01-12T07:34:04.955Z,984.34
2018-01-12T07:35:05.603Z,984.42
2018-01-12T07:36:05.182Z,984.42
2018-01-12T07:37:05.944Z,984.56
2018-01-12T07:38:05.466Z,984.51
2018-01-12T07:39:06.023Z,984.42
2018-01-12T07:40:05.467Z,984.45
2018-01-12T07:41:05.122Z,984.45
2018-01-12T07:42:05.600Z,984.59
2018-01-12T07:43:05.332Z,984.39
2018-01-12T07:44:05.434Z,984.56
2018-01-12T07:45:05.113Z,984.50
2018-01-12T07:46:05.875Z,984.59
2018-01-12T07:47:05.935Z,984.56
2018-01-12T07:48:05.090Z,984.56
2018-01-12T07:49:05.144Z,984.59
2018-01-12T07:50:05.350Z,984.50
2018-01-12T07:51:05.856Z,984.56
2018-01-12T07:52:05.814Z,984.70
2018-01-12T07:53:05.893Z,984.53
2018-01-12T07:54:05.762Z,984.56
2018-01-12T07:55:05.974Z,984.48
2018-01-12T07:56:05.913Z,984.64
2018-01-12T07:57:05.438Z,984.67
2018-01-12T07:58:05.375Z,984.64
2018-01-12T07:59:05.807Z,984.73
2018-01-12T08:00:05.481Z,984.61
2018-01-12T08:01:05.251Z,984.75
2018-01-12T08:02:05.935Z,984.64
2018-01-12T08:03:05.355Z,984.75
2018-01-12T08:04:05.157Z,984.70
2018-01-12T08:05:05.147Z,984.70
2018-01-12T08:06:05.068Z,984.86
2018-01-12T08:07:05.608Z,984.75
2018-01-12T08:08:05.572Z,984.76
2018-01-12T08:09:05.274Z,984.64
2018-01-12T08:10:05.219Z,984.70
2018-01-12T08:11:05.080Z,984.75
2018-01-12T08:12:05.920Z,984.77
2018-01-12T08:13:05.277Z,984.75
2018-01-12T08:14:05.131Z,984.70
2018-01-12T08:15:05.825Z,984.75
2018-01-12T08:16:05.957Z,984.64
2018-01-12T08:17:05.514Z,984.67
2018-01-12T08:18:05.574Z,984.67
2018-01-12T08:19:05.289Z,984.75
2018-01-12T08:20:05.085Z,984.67
2018-01-12T08:21:05.070Z,984.83
2018-01-12T08:22:05.147Z,984.75
2018-01-12T08:23:05.197Z,984.73
2018-01-12T08:24:06.048Z,984.88
2018-01-12T08:25:05.332Z,984.77
2018-01-12T08:26:05.157Z,984.70
2018-01-12T08:27:05.867Z,984.77
2018-01-12T08:28:05.786Z,984.64
2018-01-12T08:29:05.671Z,984.83
2018-01-12T08:30:05.395Z,984.83
2018-01-12T08:31:05.292Z,984.85
2018-01-12T08:32:05.281Z,984.94
2018-01-12T08:33:05.720Z,984.85
2018-01-12T08:34:05.320Z,984.85
2018-01-12T08:35:05.164Z,984.85
2018-01-12T08:36:05.100Z,984.94
2018-01-12T08:37:05.749Z,984.94
2018-01-12T08:38:05.685Z,984.80
2018-01-12T08:39:05.552Z,984.77
2018-01-12T08:40:05.223Z,984.75
2018-01-12T08:41:05.994Z,984.82
2018-01-12T08:42:05.418Z,984.77
2018-01-12T08:43:05.146Z,984.72
2018-01-12T08:44:05.562Z,984.80
2018-01-12T08:45:05.533Z,984.85
2018-01-12T08:46:11.312Z,984.85
2018-01-12T08:47:05.126Z,984.91
2018-01-12T08:48:10.048Z,984.82
2018-01-12T08:49:05.251Z,984.88
2018-01-12T08:50:05.762Z,984.94
2018-01-12T08:51:05.910Z,985.02
2018-01-12T08:52:05.361Z,984.91
2018-01-12T08:53:05.088Z,984.96
2018-01-12T08:54:05.734Z,984.96
2018-01-12T08:55:05.618Z,984.79
2018-01-12T08:56:05.439Z,985.07
2018-01-12T08:57:05.060Z,984.88
2018-01-12T08:58:05.085Z,985.10
2018-01-12T08:59:04.921Z,984.96
2018-01-12T09:00:05.940Z,985.10
2018-01-12T09:01:05.491Z,985.16
2018-01-12T09:02:05.192Z,985.16
2018-01-12T09:03:05.686Z,985.10
2018-01-12T09:04:05.279Z,984.99
2018-01-12T09:05:05.879Z,985.16
2018-01-12T09:06:05.844Z,985.24
2018-01-12T09:07:05.842Z,985.19
2018-01-12T09:08:05.529Z,985.10
2018-01-12T09:09:04.966Z,985.21
2018-01-12T09:10:05.619Z,985.16
2018-01-12T09:11:05.501Z,985.38
2018-01-12T09:12:05.808Z,985.38
2018-01-12T09:13:05.127Z,985.46
2018-01-12T09:14:05.757Z,985.30
2018-01-12T09:15:05.795Z,985.27
2018-01-12T09:16:05.729Z,985.19
2018-01-12T09:17:05.195Z,985.24
2018-01-12T09:18:06.023Z,985.35
2018-01-12T09:19:05.309Z,985.30
2018-01-12T09:20:10.063Z,985.30
2018-01-12T09:21:05.951Z,985.35
2018-01-12T09:22:05.690Z,985.35
2018-01-12T09:23:05.434Z,985.35
2018-01-12T09:24:05.917Z,985.22
2018-01-12T09:25:05.023Z,985.38
2018-01-12T09:26:05.702Z,985.35
2018-01-12T09:27:05.169Z,985.46
2018-01-12T09:28:05.759Z,985.46
2018-01-12T09:29:05.314Z,985.46
2018-01-12T09:30:05.099Z,985.41
2018-01-12T09:31:05.361Z,985.49
2018-01-12T09:32:05.314Z,985.43
2018-01-12T09:33:06.058Z,985.49
2018-01-12T09:34:05.535Z,985.49
2018-01-12T09:35:05.765Z,985.52
2018-01-12T09:36:05.032Z,985.60
2018-01-12T09:37:05.727Z,985.55
2018-01-12T09:38:05.289Z,985.55
2018-01-12T09:39:05.785Z,985.43
2018-01-12T09:40:05.170Z,985.46
2018-01-12T09:41:05.850Z,985.35
2018-01-12T09:42:05.152Z,985.54
2018-01-12T09:43:05.636Z,985.52
2018-01-12T09:44:05.728Z,985.54
2018-01-12T09:45:05.487Z,985.49
2018-01-12T09:46:05.290Z,985.68
2018-01-12T09:47:05.081Z,985.30
2018-01-12T09:48:05.583Z,985.46
2018-01-12T09:49:05.490Z,985.40
2018-01-12T09:50:05.145Z,985.46
2018-01-12T09:51:05.066Z,985.54
2018-01-12T09:52:05.088Z,985.60
2018-01-12T09:53:05.277Z,985.57
2018-01-12T09:54:05.021Z,985.52
2018-01-12T09:55:05.084Z,985.52
2018-01-12T09:56:05.536Z,985.57
2018-01-12T09:57:05.702Z,985.60
2018-01-12T09:58:05.214Z,985.52
2018-01-12T09:59:05.131Z,985.52
2018-01-12T10:00:04.911Z,985.68
2018-01-12T10:01:05.489Z,985.66
2018-01-12T10:02:05.059Z,985.57
2018-01-12T10:03:04.959Z,985.60
2018-01-12T10:04:05.930Z,985.60
2018-01-12T10:05:05.316Z,985.51
2018-01-12T10:06:05.393Z,985.65
2018-01-12T10:07:05.780Z,985.54
2018-01-12T10:08:05.240Z,985.54
2018-01-12T10:09:05.053Z,985.60
2018-01-12T10:10:05.027Z,985.54
2018-01-12T10:11:05.992Z,985.54
2018-01-12T10:12:05.729Z,985.65
2018-01-12T10:13:05.245Z,985.37
2018-01-12T10:14:05.215Z,985.51
2018-01-12T10:15:05.101Z,985.57
2018-01-12T10:16:05.514Z,985.68
2018-01-12T10:17:05.404Z,985.46
2018-01-12T10:18:05.873Z,985.46
2018-01-12T10:19:04.977Z,985.54
2018-01-12T10:20:05.557Z,985.46
2018-01-12T10:21:05.730Z,985.37
2018-01-12T10:22:05.405Z,985.40
2018-01-12T10:23:05.391Z,985.46
2018-01-12T10:24:05.521Z,985.37
2018-01-12T10:25:05.147Z,985.51
2018-01-12T10:26:05.019Z,985.60
2018-01-12T10:27:05.919Z,985.49
2018-01-12T10:28:05.772Z,985.57
2018-01-12T10:29:05.915Z,985.48
2018-01-12T10:30:05.993Z,985.40
2018-01-12T10:31:05.339Z,985.63
2018-01-12T10:32:05.383Z,985.63
2018-01-12T10:33:05.042Z,985.54
2018-01-12T10:34:05.788Z,985.54
2018-01-12T10:35:05.563Z,985.54
2018-01-12T10:36:05.784Z,985.40
2018-01-12T10:37:05.470Z,985.54
2018-01-12T10:38:05.376Z,985.62
2018-01-12T10:39:05.802Z,985.62
2018-01-12T10:40:05.238Z,985.54
2018-01-12T10:41:05.250Z,985.48
2018-01-12T10:42:04.973Z,985.57
2018-01-12T10:43:05.637Z,985.71
2018-01-12T10:44:05.608Z,985.79
2018-01-12T10:45:05.729Z,985.71
2018-01-12T10:46:05.490Z,985.65
2018-01-12T10:47:05.847Z,985.79
2018-01-12T10:48:05.423Z,985.74
2018-01-12T10:49:05.205Z,985.65
2018-01-12T10:50:05.241Z,985.76
2018-01-12T10:51:05.920Z,985.74
2018-01-12T10:52:05.314Z,985.68
2018-01-12T10:53:05.427Z,985.65
2018-01-12T10:54:05.947Z,985.68
2018-01-12T10:55:05.433Z,985.85
2018-01-12T10:56:05.778Z,985.85
2018-01-12T10:57:05.389Z,985.82
2018-01-12T10:58:05.551Z,985.62
2018-01-12T10:59:05.187Z,985.82
2018-01-12T11:00:05.190Z,985.65
2018-01-12T11:01:05.372Z,985.65
2018-01-12T11:02:05.238Z,985.68
2018-01-12T11:03:05.238Z,985.93
2018-01-12T11:04:05.700Z,985.76
2018-01-12T11:05:05.540Z,985.71
2018-01-12T11:06:05.197Z,985.73
2018-01-12T11:07:05.482Z,985.73
2018-01-12T11:08:05.228Z,985.79
2018-01-12T11:09:05.749Z,985.68
2018-01-12T11:10:05.361Z,985.65
2018-01-12T11:11:05.416Z,985.68
2018-01-12T11:12:05.322Z,985.68
2018-01-12T11:13:05.190Z,985.62
2018-01-12T11:14:05.904Z,985.76
2018-01-12T11:15:05.356Z,985.70
2018-01-12T11:16:05.910Z,985.68
2018-01-12T11:17:05.499Z,985.65
2018-01-12T11:18:05.878Z,985.70
2018-01-12T11:19:05.434Z,985.65
2018-01-12T11:20:05.627Z,985.53
2018-01-12T11:21:05.596Z,985.59
2018-01-12T11:22:05.487Z,985.73
2018-01-12T11:23:05.888Z,985.76
2018-01-12T11:24:05.511Z,985.67
2018-01-12T11:25:05.163Z,985.79
2018-01-12T11:26:05.017Z,985.56
2018-01-12T11:27:04.996Z,985.70
2018-01-12T11:28:05.496Z,985.73
2018-01-12T11:29:05.342Z,985.73
2018-01-12T11:30:05.315Z,985.67
2018-01-12T11:31:05.407Z,985.73
2018-01-12T11:32:05.480Z,985.67
2018-01-12T11:33:05.997Z,985.67
2018-01-12T11:34:05.600Z,985.90
2018-01-12T11:35:05.043Z,985.67
2018-01-12T11:36:05.969Z,985.81
2018-01-12T11:37:05.152Z,985.70
2018-01-12T11:38:05.722Z,985.59
2018-01-12T11:39:05.166Z,985.70
2018-01-12T11:40:06.331Z,985.70
2018-01-12T11:41:05.286Z,985.58
2018-01-12T11:42:05.730Z,985.67
2018-01-12T11:43:05.707Z,985.70
2018-01-12T11:44:05.176Z,985.75
2018-01-12T11:45:05.353Z,985.78
2018-01-12T11:46:05.282Z,985.58
2018-01-12T11:47:05.311Z,985.69
2018-01-12T11:49:05.761Z,985.67
2018-01-12T11:50:05.560Z,985.69
2018-01-12T11:51:05.319Z,985.69
2018-01-12T11:52:05.902Z,985.69
2018-01-12T11:53:05.670Z,985.72
2018-01-12T11:54:05.065Z,985.55
2018-01-12T11:55:05.085Z,985.78
2018-01-12T11:56:05.564Z,985.58
2018-01-12T11:57:05.268Z,985.72
2018-01-12T11:58:05.874Z,985.83
2018-01-12T11:59:06.014Z,985.69
2018-01-12T12:00:05.045Z,985.75
2018-01-12T12:01:05.543Z,985.58
2018-01-12T12:02:05.200Z,985.69
2018-01-12T12:03:05.790Z,985.67
2018-01-12T12:04:05.203Z,985.67
2018-01-12T12:05:05.259Z,985.64
2018-01-12T12:06:05.180Z,985.61
2018-01-12T12:07:05.694Z,985.64
2018-01-12T12:08:05.658Z,985.69
2018-01-12T12:09:05.228Z,985.69
2018-01-12T12:10:05.872Z,985.61
2018-01-12T12:11:05.511Z,985.69
2018-01-12T12:12:05.113Z,985.58
2018-01-12T12:13:05.340Z,985.58
2018-01-12T12:14:04.987Z,985.66
2018-01-12T12:15:05.280Z,985.64
2018-01-12T12:16:05.357Z,985.66
2018-01-12T12:17:05.372Z,985.64
2018-01-12T12:18:05.212Z,985.55
2018-01-12T12:19:05.545Z,985.55
2018-01-12T12:20:05.756Z,985.69
2018-01-12T12:21:05.348Z,985.66
2018-01-12T12:22:05.379Z,985.58
2018-01-12T12:23:04.984Z,985.69
2018-01-12T12:24:05.284Z,985.64
2018-01-12T12:25:05.124Z,985.75
2018-01-12T12:26:05.859Z,985.50
2018-01-12T12:27:05.846Z,985.64
2018-01-12T12:28:05.561Z,985.64
2018-01-12T12:29:05.742Z,985.55